createdAt,value
2023-05-03T00:00:50.947Z,941.9
2023-05-03T00:15:43.239Z,940.9
2023-05-03T00:30:54.170Z,941.5
2023-05-03T00:45:43.004Z,940.8
2023-05-03T01:00:41.946Z,941.8
2023-05-03T01:15:47.373Z,941.7
2023-05-03T01:30:43.612Z,942.4
2023-05-03T01:45:44.071Z,940.7
2023-05-03T02:00:43.650Z,941.4
2023-05-03T02:15:44.398Z,943.1
2023-05-03T02:30:45.217Z,941.9
2023-05-03T02:45:48.461Z,941.9
2023-05-03T03:00:46.075Z,944.1
2023-05-03T03:15:47.626Z,945.1
2023-05-03T03:31:01.125Z,945.1
2023-05-03T03:45:58.161Z,944.9
2023-05-03T03:55:18.620Z,945
2023-05-03T04:10:34.415Z,944.8
2023-05-03T04:25:20.044Z,944.8
2023-05-03T04:40:21.905Z,944.9
2023-05-03T04:55:17.409Z,944.9
2023-05-03T05:10:17.830Z,945
2023-05-03T05:25:18.830Z,945
2023-05-03T05:40:20.439Z,945.2
2023-05-03T05:55:36.081Z,944.8
2023-05-03T06:10:21.645Z,944.1
2023-05-03T06:25:19.873Z,943.1
2023-05-03T06:40:21.331Z,943.2
2023-05-03T06:55:20.325Z,943.9
2023-05-03T07:10:22.431Z,943.1
2023-05-03T07:25:24.817Z,943.1
2023-05-03T07:40:23.361Z,943.4
2023-05-03T07:55:25.047Z,943.8
2023-05-03T08:10:23.201Z,940.1
2023-05-03T08:25:23.318Z,939.4
2023-05-03T08:40:23.259Z,939.1
2023-05-03T08:55:24.216Z,938.9
2023-05-03T09:10:29.741Z,938.9
2023-05-03T09:25:26.052Z,938.4
2023-05-03T09:40:44.240Z,938.4
2023-05-03T09:55:27.229Z,938.2
2023-05-03T10:10:27.137Z,937.9
2023-05-03T10:25:28.696Z,937.9
2023-05-03T10:40:28.206Z,937.8
2023-05-03T10:55:29.714Z,937.7
2023-05-03T11:10:30.417Z,937.7
2023-05-03T11:25:43.883Z,937.5
2023-05-03T11:40:30.414Z,937.6
2023-05-03T11:55:30.273Z,937.5
2023-05-03T12:10:38.559Z,937.5
2023-05-03T12:25:45.796Z,937.6
2023-05-03T12:40:48.281Z,937.6
2023-05-03T14:55:38.694Z,937.4
2023-05-03T19:25:50.874Z,936.8
2023-05-03T19:40:51.353Z,937.2
2023-05-03T19:55:48.491Z,937.3
2023-05-03T20:25:52.828Z,937.3
2023-05-03T20:40:57.109Z,937.2
2023-05-03T20:55:48.706Z,937.1
2023-05-03T21:10:55.801Z,937
2023-05-03T21:25:56.765Z,937
2023-05-03T21:40:51.353Z,937
2023-05-03T21:55:51.545Z,936.9
2023-05-03T22:00:43.318Z,936.8
2023-05-03T22:15:36.680Z,936.9
2023-05-03T22:30:37.607Z,936.8
2023-05-03T22:45:38.252Z,936.8
2023-05-03T23:00:37.834Z,936.6
2023-05-03T23:15:39.370Z,936.6
2023-05-03T23:30:40.147Z,936.6
2023-05-03T23:45:41.633Z,936.5
